Time;durP1;ratioP1;P1;durP2;ratioP2;P2;SDS_P1;SDS_P2;PMS_P1;PMS_P2;Temp;Humidity;BMP_temperature;BMP_pressure;BME280_temperature;BME280_humidity;BME280_pressure;Samples;Min_cycle;Max_cycle;Signal;HPM_P1;HPM_P2
2022/06/09 00:01:22;;;;;;;4.03;0.90;;;29.70;99.90;;;;;;4968962;28;20410;-48
2022/06/09 00:04:02;;;;;;;3.03;0.80;;;29.70;99.90;;;;;;4968915;28;20031;-50
2022/06/09 00:06:40;;;;;;;3.05;0.60;;;29.70;99.90;;;;;;4974784;28;20457;-50
2022/06/09 00:09:07;;;;;;;8.45;1.00;;;29.60;99.90;;;;;;4982429;28;20042;-48
2022/06/09 00:11:39;;;;;;;9.25;0.75;;;29.70;99.90;;;;;;4975853;28;20079;-49
2022/06/09 00:14:07;;;;;;;12.65;1.20;;;29.60;99.90;;;;;;4963486;28;20166;-50
2022/06/09 00:16:34;;;;;;;9.50;1.27;;;29.60;99.90;;;;;;4971194;28;20042;-51
2022/06/09 00:19:00;;;;;;;5.68;1.13;;;29.60;99.90;;;;;;4966403;28;20019;-50
2022/06/09 00:21:26;;;;;;;4.47;0.50;;;29.60;99.90;;;;;;4975169;28;20022;-50
2022/06/09 00:23:52;;;;;;;6.30;0.63;;;29.60;99.90;;;;;;4971806;28;20475;-49
2022/06/09 00:26:18;;;;;;;4.13;1.00;;;29.50;99.90;;;;;;4971966;28;20448;-50
2022/06/09 00:28:44;;;;;;;4.93;0.80;;;29.50;99.90;;;;;;4966533;28;20055;-50
2022/06/09 00:31:10;;;;;;;5.18;0.63;;;29.50;99.90;;;;;;4966749;28;20035;-49
2022/06/09 00:33:35;;;;;;;9.65;0.90;;;29.50;99.90;;;;;;4970921;28;20062;-49
2022/06/09 00:36:01;;;;;;;3.30;0.80;;;29.50;99.90;;;;;;4971834;28;20034;-50
2022/06/09 00:38:27;;;;;;;2.92;1.30;;;29.50;99.90;;;;;;4970244;28;20026;-50
2022/06/09 00:40:57;;;;;;;1.20;0.57;;;29.50;99.90;;;;;;4972175;28;20049;-51
2022/06/09 00:43:24;;;;;;;4.20;0.95;;;29.50;99.90;;;;;;4974962;28;20104;-51
2022/06/09 00:45:58;;;;;;;7.43;1.30;;;29.50;99.90;;;;;;4979095;28;20035;-51
2022/06/09 00:49:01;;;;;;;7.78;1.05;;;29.50;99.90;;;;;;4968766;28;20095;-50
2022/06/09 00:51:44;;;;;;;3.13;0.60;;;29.40;99.90;;;;;;4952916;28;20057;-50
2022/06/09 00:54:25;;;;;;;3.60;0.85;;;29.40;99.90;;;;;;4967133;28;20034;-52
2022/06/09 00:57:19;;;;;;;1.10;0.50;;;29.40;99.90;;;;;;4971027;28;20506;-53
2022/06/09 00:59:48;;;;;;;2.88;0.80;;;29.40;99.90;;;;;;4967520;28;20043;-51
2022/06/09 01:02:18;;;;;;;4.15;0.70;;;29.40;99.90;;;;;;4971416;28;20031;-51
2022/06/09 01:04:47;;;;;;;1.95;0.40;;;29.30;99.90;;;;;;4975025;28;20049;-51
2022/06/09 01:07:17;;;;;;;5.18;0.70;;;29.30;99.90;;;;;;4967953;28;20118;-51
2022/06/09 01:09:43;;;;;;;7.28;0.88;;;29.30;99.90;;;;;;4971671;28;20027;-51
2022/06/09 01:12:23;;;;;;;4.85;0.90;;;29.30;99.90;;;;;;4973241;28;20026;-51
2022/06/09 01:14:49;;;;;;;6.20;0.68;;;29.30;99.90;;;;;;4971262;28;20027;-51
2022/06/09 01:17:30;;;;;;;7.88;1.08;;;29.30;99.90;;;;;;4968970;28;20054;-51
2022/06/09 01:20:18;;;;;;;4.47;0.82;;;29.30;99.90;;;;;;4969218;28;20154;-50
2022/06/09 01:23:05;;;;;;;2.55;0.80;;;29.30;99.90;;;;;;4971649;28;20121;-50
2022/06/09 01:26:12;;;;;;;3.22;0.70;;;29.30;99.90;;;;;;4970184;28;20030;-50
2022/06/09 01:28:55;;;;;;;2.20;1.15;;;29.30;99.90;;;;;;4956304;28;20019;-48
2022/06/09 01:31:45;;;;;;;1.27;0.65;;;29.30;99.90;;;;;;4971749;28;20033;-49
2022/06/09 01:34:33;;;;;;;3.05;0.80;;;29.30;99.90;;;;;;4971422;28;20034;-49
2022/06/09 01:37:22;;;;;;;3.92;0.60;;;29.30;99.90;;;;;;4967967;28;20082;-50
2022/06/09 01:39:50;;;;;;;5.90;0.73;;;29.20;99.90;;;;;;4973079;28;20221;-50
2022/06/09 01:42:25;;;;;;;3.55;0.80;;;29.20;99.90;;;;;;4970723;28;20041;-48
2022/06/09 01:44:54;;;;;;;4.63;0.57;;;29.20;99.90;;;;;;4971308;28;20031;-48
2022/06/09 01:47:22;;;;;;;2.75;0.60;;;29.10;99.90;;;;;;4971184;28;20031;-49
2022/06/09 01:49:52;;;;;;;1.17;0.60;;;29.10;99.90;;;;;;4971389;28;20027;-49
2022/06/09 01:52:20;;;;;;;7.72;0.80;;;29.10;99.90;;;;;;4969902;28;20533;-47
2022/06/09 01:54:48;;;;;;;2.33;0.75;;;29.10;99.90;;;;;;4982835;28;20454;-49
2022/06/09 01:57:20;;;;;;;3.42;0.60;;;29.10;99.90;;;;;;4969585;28;20078;-48
2022/06/09 02:00:09;;;;;;;2.88;0.80;;;29.10;99.90;;;;;;4972355;28;20085;-48
2022/06/09 02:02:49;;;;;;;3.50;1.08;;;29.20;99.90;;;;;;4969481;28;20444;-48
2022/06/09 02:05:24;;;;;;;2.47;0.80;;;29.10;99.90;;;;;;4966439;28;20031;-49
2022/06/09 02:07:54;;;;;;;2.38;0.85;;;29.10;99.90;;;;;;4971195;28;20487;-51
2022/06/09 02:10:29;;;;;;;2.55;0.60;;;29.10;99.90;;;;;;4971065;28;20416;-49
2022/06/09 02:12:59;;;;;;;4.50;0.57;;;29.00;99.90;;;;;;4969310;28;20078;-51
2022/06/09 02:15:36;;;;;;;1.02;0.60;;;29.00;99.90;;;;;;4971970;28;20403;-50
2022/06/09 02:18:12;;;;;;;4.25;0.60;;;29.00;99.90;;;;;;4974122;28;20042;-50
2022/06/09 02:20:42;;;;;;;5.22;0.60;;;29.00;99.90;;;;;;4975420;28;20026;-50
2022/06/09 02:23:13;;;;;;;2.88;0.90;;;29.00;99.90;;;;;;4972422;28;20041;-51
2022/06/09 02:25:39;;;;;;;1.42;0.90;;;29.00;99.90;;;;;;4974183;28;20013;-48
2022/06/09 02:28:07;;;;;;;6.53;1.00;;;29.00;99.90;;;;;;4975176;28;20022;-48
2022/06/09 02:30:33;;;;;;;;;;;28.90;99.90;;;;;;4975708;28;20026;-48
2022/06/09 02:32:59;;;;;;;5.37;0.87;;;28.90;99.90;;;;;;4975281;28;19906;-48
2022/06/09 02:35:25;;;;;;;3.92;0.85;;;28.90;99.90;;;;;;4975234;28;20077;-49
2022/06/09 02:37:50;;;;;;;2.28;0.82;;;28.90;99.90;;;;;;4974014;28;20085;-48
2022/06/09 02:40:16;;;;;;;8.48;1.00;;;28.90;99.90;;;;;;4975165;28;20057;-49
2022/06/09 02:42:42;;;;;;;3.47;0.68;;;28.90;99.90;;;;;;4974962;28;20064;-48
2022/06/09 02:45:09;;;;;;;3.60;0.73;;;28.90;99.90;;;;;;4975082;28;20103;-49
2022/06/09 02:47:35;;;;;;;3.93;1.00;;;28.80;99.90;;;;;;4975195;28;20023;-48
2022/06/09 02:50:02;;;;;;;4.47;0.73;;;28.80;99.90;;;;;;4974840;28;20081;-48
2022/06/09 02:52:27;;;;;;;4.18;1.13;;;28.80;99.90;;;;;;4973885;28;20030;-47
2022/06/09 02:54:54;;;;;;;5.18;0.68;;;28.80;99.90;;;;;;4974722;28;20031;-49
2022/06/09 02:57:23;;;;;;;0.93;0.60;;;28.80;99.90;;;;;;4974818;28;20495;-48
2022/06/09 02:59:50;;;;;;;2.47;0.70;;;28.80;99.90;;;;;;4999729;23;20295;-50
2022/06/09 03:02:17;;;;;;;1.30;0.60;;;28.70;99.90;;;;;;5034711;28;20472;-54
2022/06/09 03:04:42;;;;;;;1.75;0.70;;;28.70;99.90;;;;;;5033386;28;20038;-53
2022/06/09 03:07:08;;;;;;;2.13;0.85;;;28.70;99.90;;;;;;5033365;28;20358;-53
2022/06/09 03:09:34;;;;;;;2.20;0.85;;;28.70;99.90;;;;;;5033392;28;20021;-53
2022/06/09 03:11:59;;;;;;;3.75;0.85;;;28.70;99.90;;;;;;5033568;28;20084;-53
2022/06/09 03:14:25;;;;;;;4.13;0.85;;;28.70;99.90;;;;;;5033269;28;20075;-53
2022/06/09 03:16:51;;;;;;;3.50;0.68;;;28.70;99.90;;;;;;5033273;28;20025;-52
2022/06/09 03:19:18;;;;;;;0.90;0.52;;;28.70;99.90;;;;;;5047641;28;20465;-52
2022/06/09 03:21:44;;;;;;;2.28;0.77;;;28.70;99.90;;;;;;5033434;28;20053;-53
2022/06/09 03:24:09;;;;;;;1.70;0.90;;;28.70;99.90;;;;;;5032922;28;20449;-52
2022/06/09 03:26:36;;;;;;;3.63;0.93;;;28.70;99.90;;;;;;5045743;28;20067;-53
2022/06/09 03:29:02;;;;;;;3.00;0.68;;;28.70;99.90;;;;;;5033218;28;20025;-53
2022/06/09 03:31:27;;;;;;;4.72;0.77;;;28.60;99.90;;;;;;5046655;28;20387;-52
2022/06/09 03:33:53;;;;;;;4.68;0.68;;;28.60;99.90;;;;;;5033249;28;20025;-52
2022/06/09 03:36:19;;;;;;;3.60;0.70;;;28.60;99.90;;;;;;5032892;28;20025;-53
2022/06/09 03:38:45;;;;;;;1.58;0.73;;;28.60;99.90;;;;;;5032736;28;20473;-51
2022/06/09 03:41:11;;;;;;;1.23;0.70;;;28.60;99.90;;;;;;5032671;28;20020;-52
2022/06/09 03:43:37;;;;;;;2.22;0.90;;;28.60;99.90;;;;;;5032862;28;20022;-51
2022/06/09 03:46:03;;;;;;;2.72;0.60;;;28.60;99.90;;;;;;5031465;28;20275;-52
2022/06/09 03:48:29;;;;;;;0.73;0.70;;;28.70;99.90;;;;;;5032829;28;20037;-51
2022/06/09 03:50:55;;;;;;;0.82;0.77;;;28.60;99.90;;;;;;5032435;28;20095;-52
2022/06/09 03:53:21;;;;;;;2.53;1.00;;;28.60;99.90;;;;;;5032414;28;20031;-52
2022/06/09 03:55:47;;;;;;;1.60;0.50;;;28.60;99.90;;;;;;5032668;28;20075;-53
2022/06/09 03:58:13;;;;;;;3.85;0.80;;;28.60;99.90;;;;;;5032416;28;20029;-51
2022/06/09 04:00:39;;;;;;;2.13;0.75;;;28.60;99.90;;;;;;5032998;22;20047;-49
2022/06/09 04:03:05;;;;;;;4.82;1.00;;;28.60;99.90;;;;;;4992822;28;20065;-51
2022/06/09 04:05:32;;;;;;;2.30;1.00;;;28.60;99.90;;;;;;4992895;28;20466;-51
2022/06/09 04:08:02;;;;;;;1.15;0.70;;;28.70;99.90;;;;;;4992864;28;20022;-51
2022/06/09 04:10:30;;;;;;;4.40;0.82;;;28.70;99.90;;;;;;4992934;28;20474;-51
2022/06/09 04:12:56;;;;;;;2.63;0.80;;;28.70;99.90;;;;;;4972491;28;20113;-50
2022/06/09 04:15:23;;;;;;;2.60;0.70;;;28.60;99.90;;;;;;4982302;28;20110;-50
2022/06/09 04:17:49;;;;;;;4.68;0.95;;;28.60;99.90;;;;;;4992665;28;20037;-49
2022/06/09 04:20:17;;;;;;;2.80;0.77;;;28.70;99.90;;;;;;4992722;28;20501;-49
2022/06/09 04:22:43;;;;;;;4.20;1.00;;;28.60;99.90;;;;;;4992333;28;20038;-49
2022/06/09 04:25:10;;;;;;;1.17;1.08;;;28.60;99.90;;;;;;4992597;28;20023;-50
2022/06/09 04:27:36;;;;;;;2.45;0.82;;;28.70;99.90;;;;;;4992451;28;20034;-50
2022/06/09 04:30:02;;;;;;;4.65;0.85;;;28.70;99.90;;;;;;4992451;28;20026;-50
2022/06/09 04:32:28;;;;;;;1.88;0.80;;;28.70;99.90;;;;;;4992430;28;20498;-50
2022/06/09 04:34:54;;;;;;;2.13;0.90;;;28.70;99.90;;;;;;4992167;28;20034;-50
2022/06/09 04:37:20;;;;;;;0.90;0.60;;;28.60;99.90;;;;;;4991628;28;20485;-50
2022/06/09 04:39:46;;;;;;;2.60;0.80;;;28.70;99.90;;;;;;4992374;28;20058;-50
2022/06/09 04:42:11;;;;;;;3.13;0.82;;;28.70;99.90;;;;;;4992123;28;20494;-48
2022/06/09 04:44:38;;;;;;;3.85;0.98;;;28.70;99.90;;;;;;4992115;28;20026;-49
2022/06/09 04:47:04;;;;;;;1.70;0.65;;;28.60;99.90;;;;;;4992351;28;20031;-50
2022/06/09 04:49:30;;;;;;;2.42;0.88;;;28.70;99.90;;;;;;4991900;28;20032;-49
2022/06/09 04:51:55;;;;;;;1.15;0.80;;;28.60;99.90;;;;;;4992065;28;20036;-50
2022/06/09 04:54:21;;;;;;;4.40;0.75;;;28.60;99.90;;;;;;4992146;28;20048;-50
2022/06/09 04:56:47;;;;;;;4.40;3.05;;;28.60;99.90;;;;;;4991885;28;20501;-51
2022/06/09 04:59:13;;;;;;;4.63;1.10;;;28.70;99.90;;;;;;4990793;28;20028;-52
2022/06/09 05:01:38;;;;;;;3.17;0.82;;;28.70;99.90;;;;;;4991753;28;20050;-52
2022/06/09 05:04:04;;;;;;;7.20;0.77;;;28.70;99.90;;;;;;4992043;28;20080;-52
2022/06/09 05:06:30;;;;;;;2.63;0.88;;;28.70;99.90;;;;;;4991763;28;20045;-52
2022/06/09 05:08:57;;;;;;;3.80;1.40;;;28.70;99.90;;;;;;4991789;28;20030;-53
2022/06/09 05:11:24;;;;;;;4.72;0.82;;;28.70;99.90;;;;;;4992156;28;20030;-52
2022/06/09 05:13:50;;;;;;;2.78;0.68;;;28.70;99.90;;;;;;4991854;28;20038;-51
2022/06/09 05:16:17;;;;;;;2.58;0.70;;;28.60;99.90;;;;;;4991842;28;20109;-49
2022/06/09 05:18:42;;;;;;;12.70;1.20;;;28.70;99.90;;;;;;4991742;28;20545;-48
2022/06/09 05:21:09;;;;;;;2.78;1.25;;;28.70;99.90;;;;;;4991811;28;20078;-48
2022/06/09 05:23:37;;;;;;;8.30;1.08;;;28.70;99.90;;;;;;4991931;28;20019;-51
2022/06/09 05:26:05;;;;;;;3.97;1.17;;;28.70;99.90;;;;;;4991531;28;20030;-51
2022/06/09 05:28:32;;;;;;;3.42;1.00;;;28.70;99.90;;;;;;4991483;28;20421;-50
2022/06/09 05:30:59;;;;;;;5.72;1.08;;;28.70;99.90;;;;;;4991744;28;20081;-50
2022/06/09 05:33:25;;;;;;;2.15;0.68;;;28.70;99.90;;;;;;4991446;28;20441;-50
2022/06/09 05:35:51;;;;;;;5.15;1.30;;;28.70;99.90;;;;;;4991685;28;20026;-51
2022/06/09 05:46:33;;;;;;;9.80;2.67;;;28.70;99.90;;;;;;4991878;28;20030;-51
2022/06/09 05:48:59;;;;;;;8.82;3.25;;;28.80;99.90;;;;;;4994048;28;20034;-52
2022/06/09 05:51:25;;;;;;;10.52;2.03;;;28.80;99.90;;;;;;4995164;28;20045;-50
2022/06/09 05:53:51;;;;;;;5.57;1.52;;;28.80;99.90;;;;;;4995340;28;20470;-50
2022/06/09 05:56:18;;;;;;;9.60;1.70;;;28.80;99.90;;;;;;4995170;28;20386;-51
2022/06/09 05:58:44;;;;;;;5.43;1.02;;;28.90;99.90;;;;;;4978131;28;20141;-51
2022/06/09 06:01:11;;;;;;;4.60;1.05;;;28.80;99.90;;;;;;4995008;28;20125;-50
2022/06/09 06:03:39;;;;;;;2.67;1.25;;;28.90;99.90;;;;;;4995162;28;20022;-53
2022/06/09 06:08:49;;;;;;;5.70;1.60;;;28.90;99.90;;;;;;4994925;28;19913;-58
2022/06/09 06:11:15;;;;;;;9.30;1.60;;;28.90;99.90;;;;;;4994870;28;20414;-48
2022/06/09 06:13:42;;;;;;;3.95;1.10;;;28.90;99.90;;;;;;4995109;28;20034;-50
2022/06/09 06:16:08;;;;;;;5.63;1.60;;;28.90;99.90;;;;;;4995001;28;20525;-47
2022/06/09 06:18:34;;;;;;;7.20;1.67;;;29.00;99.90;;;;;;4994805;28;20047;-49
2022/06/09 06:21:00;;;;;;;6.28;1.40;;;29.00;99.90;;;;;;4994674;28;20073;-49
2022/06/09 06:23:26;;;;;;;6.38;1.42;;;29.00;99.90;;;;;;4994412;28;20050;-50
2022/06/09 06:25:54;;;;;;;3.40;1.13;;;28.90;99.90;;;;;;4993400;28;20023;-50
2022/06/09 06:28:20;;;;;;;;;;;28.90;99.90;;;;;;4995013;28;20030;-50
2022/06/09 06:30:46;;;;;;;4.13;1.30;;;28.90;99.90;;;;;;4994601;28;19906;-49
2022/06/09 06:33:12;;;;;;;7.55;1.52;;;28.90;99.90;;;;;;4994844;28;20105;-50
2022/06/09 06:35:38;;;;;;;8.43;1.20;;;28.80;99.90;;;;;;4994447;28;20101;-50
2022/06/09 06:38:04;;;;;;;13.50;2.00;;;28.80;99.90;;;;;;4994449;28;20483;-50
2022/06/09 06:40:30;;;;;;;12.75;1.65;;;28.80;99.90;;;;;;4994344;28;20023;-50
2022/06/09 06:42:56;;;;;;;7.90;1.50;;;28.80;99.90;;;;;;4994262;28;20049;-50
2022/06/09 06:45:22;;;;;;;6.70;1.50;;;28.90;99.90;;;;;;4994221;28;20101;-50
2022/06/09 06:47:48;;;;;;;3.08;1.25;;;28.70;99.90;;;;;;4994284;28;20034;-51
2022/06/09 06:50:14;;;;;;;4.18;1.38;;;28.70;99.90;;;;;;4994307;28;20022;-50
2022/06/09 06:52:40;;;;;;;4.03;1.10;;;28.70;99.90;;;;;;4993936;28;20109;-50
2022/06/09 06:55:08;;;;;;;5.25;1.40;;;28.60;99.90;;;;;;4994014;28;20034;-50
2022/06/09 06:57:34;;;;;;;3.65;1.38;;;28.60;99.90;;;;;;4994200;28;20022;-50
2022/06/09 07:00:00;;;;;;;9.00;1.50;;;28.60;99.90;;;;;;4993409;28;20042;-49
2022/06/09 07:02:26;;;;;;;7.90;1.58;;;28.60;99.90;;;;;;4994197;28;20034;-50
2022/06/09 07:04:52;;;;;;;5.72;3.47;;;28.40;99.90;;;;;;4993941;28;20058;-50
2022/06/09 07:07:18;;;;;;;8.60;6.88;;;28.50;99.90;;;;;;4993742;28;20050;-50
2022/06/09 07:09:44;;;;;;;2.17;0.82;;;28.50;99.90;;;;;;4994196;28;20069;-50
2022/06/09 07:12:10;;;;;;;8.27;1.15;;;28.50;99.90;;;;;;4993826;28;20054;-50
2022/06/09 07:14:35;;;;;;;5.65;1.30;;;28.50;99.90;;;;;;4993675;28;20076;-50
2022/06/09 07:17:01;;;;;;;2.42;1.10;;;28.60;99.90;;;;;;4993752;28;20042;-50
2022/06/09 07:19:29;;;;;;;5.35;1.27;;;28.60;99.90;;;;;;4993583;28;20529;-50
2022/06/09 07:21:55;;;;;;;10.40;2.45;;;28.60;99.90;;;;;;4993714;28;20039;-50
2022/06/09 07:24:22;;;;;;;7.65;2.20;;;28.50;99.90;;;;;;4993624;28;20034;-50
2022/06/09 07:26:48;;;;;;;4.60;2.30;;;28.30;99.90;;;;;;4993500;28;20022;-50
2022/06/09 07:29:13;;;;;;;10.13;2.60;;;28.10;99.90;;;;;;4993788;28;20101;-50
2022/06/09 07:31:40;;;;;;;7.00;2.22;;;28.00;99.90;;;;;;4992379;28;20105;-51
2022/06/09 07:34:06;;;;;;;9.80;2.40;;;27.90;99.90;;;;;;4993401;28;20037;-50
2022/06/09 07:36:32;;;;;;;8.85;2.38;;;27.70;99.90;;;;;;4993560;28;20443;-50
2022/06/09 07:38:58;;;;;;;9.00;3.03;;;27.60;99.90;;;;;;4993260;28;20030;-50
2022/06/09 07:41:24;;;;;;;11.93;2.22;;;27.50;99.90;;;;;;4993448;28;20030;-49
2022/06/09 07:43:51;;;;;;;8.88;2.58;;;27.30;99.90;;;;;;4993429;28;20018;-50
2022/06/09 07:46:18;;;;;;;11.67;3.23;;;27.20;99.90;;;;;;4993356;28;20019;-50
2022/06/09 07:48:45;;;;;;;15.80;4.50;;;27.10;99.90;;;;;;4993244;28;20026;-50
2022/06/09 07:51:11;;;;;;;18.92;4.65;;;26.90;99.90;;;;;;4993131;28;20263;-51
2022/06/09 07:53:37;;;;;;;21.08;3.67;;;26.80;99.90;;;;;;4993117;28;20066;-50
2022/06/09 07:56:03;;;;;;;19.85;4.03;;;26.80;99.90;;;;;;4993177;28;20120;-50
2022/06/09 07:58:30;;;;;;;15.00;4.10;;;26.80;99.90;;;;;;4993051;28;20034;-50
2022/06/09 08:00:56;;;;;;;13.55;5.13;;;26.90;99.90;;;;;;4993114;28;20108;-50
2022/06/09 08:03:26;;;;;;;17.55;6.32;;;27.00;99.90;;;;;;4992837;28;20610;-52
2022/06/09 08:05:53;;;;;;;13.40;4.47;;;27.20;99.90;;;;;;4992801;28;20088;-50
2022/06/09 08:08:19;;;;;;;25.70;8.13;;;27.30;99.90;;;;;;4993052;28;20018;-50
2022/06/09 08:10:45;;;;;;;21.57;7.33;;;27.40;99.90;;;;;;4991688;28;20034;-48
2022/06/09 08:13:12;;;;;;;19.20;4.68;;;27.50;99.90;;;;;;4992799;28;20061;-49
2022/06/09 08:15:38;;;;;;;13.35;3.72;;;27.60;99.90;;;;;;4992502;28;20098;-48
2022/06/09 08:18:05;;;;;;;10.60;4.13;;;27.70;99.90;;;;;;4992472;28;20549;-49
2022/06/09 08:20:33;;;;;;;19.88;4.38;;;27.80;99.90;;;;;;4992583;28;20057;-50
2022/06/09 08:23:05;;;;;;;18.92;4.15;;;28.00;99.90;;;;;;4991982;28;20133;-50
2022/06/09 08:25:30;;;;;;;11.88;3.75;;;28.10;99.90;;;;;;4992269;28;20383;-52
2022/06/09 08:27:57;;;;;;;13.32;4.22;;;28.10;99.90;;;;;;4992204;28;20069;-51
2022/06/09 08:30:23;;;;;;;12.20;3.17;;;28.30;99.90;;;;;;4992159;28;20108;-50
2022/06/09 08:32:49;;;;;;;22.37;5.20;;;28.30;99.90;;;;;;4992366;28;20030;-49
2022/06/09 08:35:16;;;;;;;12.48;4.57;;;28.40;99.90;;;;;;4992273;28;20041;-47
2022/06/09 08:37:48;;;;;;;10.10;3.65;;;28.60;99.90;;;;;;4992200;28;20034;-47
2022/06/09 08:40:46;;;;;;;8.32;3.65;;;28.60;99.90;;;;;;4992059;28;20034;-47
2022/06/09 08:43:36;;;;;;;12.65;4.28;;;28.70;99.90;;;;;;4985835;28;20121;-47
2022/06/09 08:46:18;;;;;;;10.40;3.90;;;28.90;99.90;;;;;;4986592;28;20026;-48
2022/06/09 08:48:47;;;;;;;13.30;4.22;;;28.90;99.90;;;;;;4978977;28;20034;-46
2022/06/09 08:51:39;;;;;;;9.95;5.50;;;29.10;99.90;;;;;;4992117;28;20042;-50
2022/06/09 08:54:28;;;;;;;10.23;4.00;;;29.20;99.90;;;;;;4991206;28;20482;-53
2022/06/09 08:56:56;;;;;;;15.20;5.90;;;29.30;99.90;;;;;;4991974;28;20450;-52
2022/06/09 08:59:26;;;;;;;;;;;29.50;99.90;;;;;;4992589;28;20014;-53
2022/06/09 09:01:58;;;;;;;16.60;5.32;;;29.50;99.90;;;;;;4992164;28;20021;-56
2022/06/09 09:04:40;;;;;;;13.02;3.78;;;29.60;99.90;;;;;;4991891;28;20019;-51
2022/06/09 09:07:14;;;;;;;10.02;4.20;;;29.60;99.90;;;;;;4991825;28;20049;-49
2022/06/09 09:09:40;;;;;;;11.50;5.57;;;29.60;99.90;;;;;;4990407;28;20045;-51
2022/06/09 09:12:35;;;;;;;20.97;5.80;;;29.60;99.90;;;;;;4991856;28;20081;-51
2022/06/09 09:15:20;;;;;;;12.73;5.88;;;29.60;99.90;;;;;;4991667;28;20410;-51
2022/06/09 09:17:47;;;;;;;21.10;5.85;;;29.60;99.90;;;;;;4991715;28;20030;-52
2022/06/09 09:20:15;;;;;;;15.00;5.53;;;29.70;99.90;;;;;;4991682;28;20040;-53
2022/06/09 09:23:07;;;;;;;7.22;3.97;;;29.70;99.90;;;;;;4991112;28;20042;-53
2022/06/09 09:26:05;;;;;;;14.82;6.28;;;29.80;99.90;;;;;;4991553;28;20018;-53
2022/06/09 09:28:51;;;;;;;15.65;6.35;;;29.80;99.90;;;;;;4973739;28;20084;-54
2022/06/09 09:31:17;;;;;;;10.73;4.57;;;29.90;99.90;;;;;;4987084;28;20038;-53
2022/06/09 09:33:44;;;;;;;13.75;4.90;;;30.00;99.90;;;;;;4981675;28;20151;-52
2022/06/09 09:36:23;;;;;;;9.38;3.67;;;30.00;99.90;;;;;;4985350;28;20014;-49
2022/06/09 09:39:01;;;;;;;10.90;6.22;;;29.90;99.90;;;;;;4988199;28;20084;-52
2022/06/09 09:41:28;;;;;;;10.38;3.75;;;30.00;99.90;;;;;;4990198;28;20019;-50
2022/06/09 09:43:55;;;;;;;13.77;4.63;;;30.00;99.90;;;;;;4985119;28;20394;-52
2022/06/09 09:46:33;;;;;;;13.18;3.92;;;30.00;99.90;;;;;;4991408;28;20122;-53
2022/06/09 09:49:15;;;;;;;9.70;3.30;;;30.00;99.90;;;;;;4990743;28;20411;-51
2022/06/09 09:51:42;;;;;;;12.63;4.10;;;30.10;99.90;;;;;;4989181;28;20037;-52
2022/06/09 09:54:31;;;;;;;9.63;3.53;;;30.10;99.90;;;;;;4990202;28;20479;-51
2022/06/09 09:57:16;;;;;;;9.73;3.67;;;30.10;99.90;;;;;;4981405;28;20383;-53
2022/06/09 09:59:46;;;;;;;11.65;3.67;;;30.10;99.90;;;;;;4991062;28;20187;-52
2022/06/09 10:08:39;;;;;;;14.55;5.20;;;29.60;99.90;;;;;;4980520;28;20144;-52
2022/06/09 10:13:53;;;;;;;22.17;5.63;;;29.60;99.90;;;;;;4985866;28;20034;-49
2022/06/09 10:16:21;;;;;;;16.10;4.38;;;29.50;99.90;;;;;;4988814;28;20436;-51
2022/06/09 10:18:53;;;;;;;16.13;4.65;;;29.40;99.90;;;;;;4983439;28;20086;-52
2022/06/09 10:21:19;;;;;;;14.40;5.15;;;29.40;99.90;;;;;;4984117;28;20537;-53
2022/06/09 10:24:08;;;;;;;18.08;5.70;;;29.50;99.90;;;;;;4988282;28;20133;-50
2022/06/09 10:26:38;;;;;;;17.10;5.45;;;29.50;99.90;;;;;;4990848;28;20037;-49
2022/06/09 10:29:26;;;;;;;10.75;3.80;;;29.60;99.90;;;;;;4990973;28;20034;-51
2022/06/09 10:32:24;;;;;;;16.52;5.10;;;29.50;99.90;;;;;;4991087;28;20537;-51
2022/06/09 10:34:50;;;;;;;10.40;4.68;;;29.60;99.90;;;;;;4978243;28;20027;-51
2022/06/09 10:37:24;;;;;;;11.98;4.28;;;29.60;99.90;;;;;;4986769;28;20413;-52
2022/06/09 10:40:03;;;;;;;14.27;4.05;;;29.60;99.90;;;;;;4991892;28;20034;-51
2022/06/09 10:42:49;;;;;;;13.55;4.03;;;29.60;99.90;;;;;;4994370;28;20065;-52
2022/06/09 10:45:33;;;;;;;10.35;4.10;;;29.60;99.90;;;;;;4986590;28;20429;-51
2022/06/09 10:57:06;;;;;;;11.77;3.80;;;29.80;99.90;;;;;;4986765;28;20037;-51
2022/06/09 11:00:11;;;;;;;33.00;5.28;;;29.80;99.90;;;;;;4993869;28;20015;-51
2022/06/09 11:02:40;;;;;;;21.65;5.75;;;29.80;99.90;;;;;;4993927;28;20041;-51
2022/06/09 11:05:06;;;;;;;20.55;6.65;;;29.80;99.90;;;;;;4994088;28;20025;-51
2022/06/09 11:07:59;;;;;;;15.47;5.13;;;29.80;99.90;;;;;;4987278;28;20342;-51
2022/06/09 11:10:46;;;;;;;13.05;4.53;;;29.80;99.90;;;;;;4983182;28;20026;-52
2022/06/09 11:13:12;;;;;;;20.88;5.30;;;29.80;99.90;;;;;;4993765;28;20101;-52
2022/06/09 11:15:42;;;;;;;15.82;5.78;;;29.70;99.90;;;;;;4993891;28;20018;-52
2022/06/09 11:18:44;;;;;;;11.20;5.45;;;29.70;99.90;;;;;;4993752;28;20054;-51
2022/06/09 11:21:15;;;;;;;13.95;5.53;;;29.70;99.90;;;;;;4989260;28;20116;-51
2022/06/09 11:23:53;;;;;;;11.05;5.65;;;29.70;99.90;;;;;;4993607;28;20081;-52
2022/06/09 11:26:47;;;;;;;15.52;6.13;;;29.60;99.90;;;;;;4993670;28;20113;-51
2022/06/09 11:29:36;;;;;;;15.20;6.38;;;29.70;99.90;;;;;;4981097;28;20499;-51
2022/06/09 11:32:28;;;;;;;16.30;6.50;;;29.70;99.90;;;;;;4953564;28;20461;-51
2022/06/09 11:35:00;;;;;;;12.13;6.13;;;29.70;99.90;;;;;;4993362;28;20030;-51
2022/06/09 11:37:56;;;;;;;16.90;6.28;;;29.70;99.90;;;;;;4993371;28;20022;-52
2022/06/09 11:40:28;;;;;;;14.27;6.07;;;29.60;99.90;;;;;;4986027;28;20042;-52
2022/06/09 11:43:00;;;;;;;13.90;6.65;;;29.60;99.90;;;;;;4991764;28;20097;-52
2022/06/09 11:45:52;;;;;;;14.35;6.00;;;29.70;99.90;;;;;;4992078;28;20026;-52
2022/06/09 11:48:42;;;;;;;15.40;6.40;;;29.60;99.90;;;;;;4993299;28;20552;-51
2022/06/09 11:51:08;;;;;;;10.52;5.75;;;29.60;99.90;;;;;;4993117;28;20057;-54
2022/06/09 11:53:44;;;;;;;9.75;5.65;;;29.70;99.90;;;;;;4993452;28;20097;-52
2022/06/09 11:56:33;;;;;;;13.60;5.60;;;29.70;99.90;;;;;;4991857;28;20022;-52
2022/06/09 11:59:00;;;;;;;11.13;6.20;;;29.70;99.90;;;;;;4993224;28;20461;-52
2022/06/09 12:01:32;;;;;;;14.50;6.50;;;29.70;99.90;;;;;;4992961;28;20054;-52
2022/06/09 12:04:12;;;;;;;11.90;5.85;;;29.70;99.90;;;;;;4993002;28;20022;-52
2022/06/09 12:06:57;;;;;;;9.40;6.20;;;29.70;99.90;;;;;;4993139;28;20057;-52
2022/06/09 12:10:00;;;;;;;13.88;5.80;;;29.70;99.90;;;;;;4992827;28;20486;-52
2022/06/09 12:12:29;;;;;;;14.95;6.25;;;29.70;99.90;;;;;;4976148;28;20474;-52
2022/06/09 12:15:17;;;;;;;18.25;7.00;;;29.70;99.90;;;;;;4979460;28;20053;-52
2022/06/09 12:18:12;;;;;;;11.65;6.07;;;29.70;99.90;;;;;;4992556;28;20026;-52
2022/06/09 12:20:40;;;;;;;13.68;6.50;;;29.70;99.90;;;;;;4973461;28;20038;-51
2022/06/09 12:23:36;;;;;;;12.48;6.25;;;29.70;99.90;;;;;;4992733;28;20100;-52
2022/06/09 12:26:16;;;;;;;13.33;7.33;;;29.70;99.90;;;;;;4982952;28;20109;-53
2022/06/09 12:28:45;;;;;;;14.75;6.10;;;29.70;99.90;;;;;;4992491;28;20113;-53
2022/06/09 12:31:14;;;;;;;13.80;6.22;;;29.70;99.90;;;;;;4983171;28;20022;-51
2022/06/09 12:34:03;;;;;;;11.75;6.60;;;29.70;99.90;;;;;;4987175;28;20493;-51
2022/06/09 12:36:41;;;;;;;12.02;5.95;;;29.70;99.90;;;;;;4992350;28;20052;-51
2022/06/09 12:39:34;;;;;;;12.65;6.10;;;29.80;99.90;;;;;;4992337;28;20098;-51
2022/06/09 12:42:18;;;;;;;13.02;6.68;;;29.70;99.90;;;;;;4992285;28;20037;-51
2022/06/09 12:44:49;;;;;;;11.30;6.57;;;29.80;99.90;;;;;;4980427;28;20425;-51
2022/06/09 12:47:21;;;;;;;10.77;6.38;;;29.80;99.90;;;;;;4992257;28;20054;-52
2022/06/09 12:49:51;;;;;;;12.02;6.57;;;29.80;99.90;;;;;;4977222;28;20108;-52
2022/06/09 12:52:32;;;;;;;12.20;6.53;;;29.80;99.90;;;;;;4992101;28;20390;-51
2022/06/09 12:55:02;;;;;;;13.43;7.10;;;29.80;99.90;;;;;;4972947;28;20018;-51
2022/06/09 12:57:42;;;;;;;12.50;6.18;;;29.80;99.90;;;;;;4982949;28;20390;-52
2022/06/09 13:00:28;;;;;;;9.93;5.80;;;29.80;99.90;;;;;;4991968;28;20038;-52
2022/06/09 13:02:55;;;;;;;11.98;5.68;;;29.80;99.90;;;;;;4990119;28;20062;-51
2022/06/09 13:05:21;;;;;;;10.67;5.77;;;29.80;99.90;;;;;;4976865;28;20022;-52
2022/06/09 13:07:53;;;;;;;14.27;6.03;;;29.80;99.90;;;;;;4992009;28;20033;-51
2022/06/09 13:10:36;;;;;;;13.05;6.35;;;29.80;99.90;;;;;;4991878;28;20068;-52
2022/06/09 13:13:07;;;;;;;13.85;6.32;;;29.80;99.90;;;;;;4980498;28;20022;-51
2022/06/09 13:15:43;;;;;;;11.15;5.72;;;29.80;99.90;;;;;;4991970;28;20034;-52
2022/06/09 13:18:12;;;;;;;11.73;6.78;;;29.80;99.90;;;;;;4978821;28;20069;-52
2022/06/09 13:20:49;;;;;;;9.32;6.28;;;29.80;99.90;;;;;;4991968;28;20114;-52
2022/06/09 13:23:15;;;;;;;11.15;6.03;;;29.80;99.90;;;;;;4991856;28;20129;-52
2022/06/09 13:25:43;;;;;;;11.05;6.30;;;29.80;99.90;;;;;;4991554;28;20037;-52
2022/06/09 13:28:28;;;;;;;11.85;6.97;;;29.80;99.90;;;;;;4991844;28;20114;-52
2022/06/09 13:30:55;;;;;;;13.18;7.00;;;29.80;99.90;;;;;;4991638;28;20486;-52
2022/06/09 13:33:36;;;;;;;16.02;7.53;;;29.80;99.90;;;;;;4991765;28;20035;-51
2022/06/09 13:36:27;;;;;;;12.35;7.30;;;29.80;99.90;;;;;;4991569;28;20038;-52